Mariarade, Netherlands
Current Conditions -  °F | °C
As of 11:50 PM on Thursday 18 Dec 2014 (Local Time) from ETNG Reporting Station
Drizzle Drizzle  
Wind Chill: 54°   Ceiling: 1900
Heat Index: 54°   Visibility: 5mi
Dew Point: 50°   Wind: 23mph
Humidity: 88%   Direction: 240°WSW
Pressure: 29.94"   Gusts: 37mph
Location:  50.93°N, 5.93°E
Report Text: ETNG 182250Z 24020G32KT 8000 -DZ SCT014 BKN019 12/10 Q1014
Loading
Personal Weather Stations






























Interactive Weather Map New forecast layout! Learn more

10-Day Weather Forecast

Advertisements
Track Severe Weather on mobile